createdAt,value
2023-05-23T00:02:08.904Z,2.92
2023-05-23T00:04:58.804Z,2.83
2023-05-23T00:07:46.449Z,3.35
2023-05-23T00:10:34.174Z,3.60
2023-05-23T00:13:21.917Z,3.55
2023-05-23T00:16:10.703Z,2.90
2023-05-23T00:18:59.641Z,3.40
2023-05-23T00:21:49.024Z,3.25
2023-05-23T00:24:36.777Z,3.85
2023-05-23T00:27:24.548Z,2.95
2023-05-23T00:30:12.545Z,3.40
2023-05-23T00:33:00.762Z,3.15
2023-05-23T00:35:49.441Z,2.58
2023-05-23T00:38:37.433Z,3.17
2023-05-23T00:41:27.187Z,2.58
2023-05-23T00:44:14.988Z,2.67
2023-05-23T00:47:03.141Z,2.78
2023-05-23T00:49:50.994Z,3.05
2023-05-23T00:52:39.709Z,3.22
2023-05-23T00:55:28.811Z,2.78
2023-05-23T00:58:17.986Z,3.22
2023-05-23T01:01:06.178Z,3.63
2023-05-23T01:03:54.018Z,3.30
2023-05-23T01:06:41.903Z,3.05
2023-05-23T01:12:51.399Z,3.10
2023-05-23T01:16:13.384Z,3.78
2023-05-23T01:19:06.755Z,3.38
2023-05-23T01:21:56.175Z,2.90
2023-05-23T01:25:06.682Z,3.35
2023-05-23T01:28:06.510Z,3.15
2023-05-23T01:30:58.683Z,3.22
2023-05-23T01:33:47.582Z,3.08
2023-05-23T01:36:38.073Z,2.65
2023-05-23T01:39:25.812Z,2.90
2023-05-23T01:42:14.064Z,3.78
2023-05-23T01:45:01.977Z,3.88
2023-05-23T01:47:52.988Z,3.05
2023-05-23T01:50:42.234Z,3.13
2023-05-23T01:53:32.853Z,3.50
2023-05-23T01:56:24.897Z,3.30
2023-05-23T01:59:12.880Z,3.00
2023-05-23T02:02:00.954Z,3.45
2023-05-23T02:04:50.164Z,4.18
2023-05-23T02:07:39.212Z,3.30
2023-05-23T02:10:27.171Z,3.22
2023-05-23T02:13:14.955Z,4.10
2023-05-23T02:16:02.839Z,3.58
2023-05-23T02:18:53.106Z,4.05
2023-05-23T02:21:41.386Z,4.03
2023-05-23T02:24:29.078Z,3.70
2023-05-23T02:27:16.818Z,3.63
2023-05-23T02:30:04.939Z,4.22
2023-05-23T02:32:53.485Z,3.63
2023-05-23T02:35:41.564Z,4.07
2023-05-23T02:38:31.241Z,4.28
2023-05-23T02:41:19.099Z,3.50
2023-05-23T02:44:06.992Z,3.65
2023-05-23T02:46:54.868Z,3.70
2023-05-23T02:49:42.694Z,2.90
2023-05-23T02:52:30.477Z,3.53
2023-05-23T02:55:18.354Z,4.07
2023-05-23T02:58:09.323Z,4.25
2023-05-23T03:00:57.432Z,3.17
2023-05-23T03:03:45.387Z,3.78
2023-05-23T03:06:34.415Z,3.70
2023-05-23T03:09:22.120Z,3.75
2023-05-23T03:12:12.668Z,3.42
2023-05-23T03:15:00.653Z,3.40
2023-05-23T03:17:48.738Z,2.83
2023-05-23T03:20:41.260Z,3.42
2023-05-23T03:23:29.050Z,3.88
2023-05-23T03:26:16.963Z,3.88
2023-05-23T03:29:04.840Z,4.50
2023-05-23T03:31:52.497Z,3.70
2023-05-23T03:34:40.163Z,4.25
2023-05-23T03:37:27.928Z,3.75
2023-05-23T03:40:15.844Z,3.15
2023-05-23T03:43:05.865Z,3.55
2023-05-23T03:45:55.719Z,3.03
2023-05-23T03:48:43.657Z,3.08
2023-05-23T03:51:31.963Z,3.00
2023-05-23T03:54:20.754Z,2.83
2023-05-23T03:57:08.630Z,4.20
2023-05-23T03:59:58.595Z,3.85
2023-05-23T04:02:48.680Z,3.60
2023-05-23T04:05:39.701Z,3.38
2023-05-23T04:08:29.717Z,3.38
2023-05-23T04:11:18.350Z,3.50
2023-05-23T04:14:06.810Z,4.00
2023-05-23T04:16:54.623Z,3.17
2023-05-23T04:19:46.799Z,2.92
2023-05-23T04:22:34.740Z,3.55
2023-05-23T04:25:24.653Z,2.75
2023-05-23T04:28:24.404Z,3.42
2023-05-23T04:31:15.791Z,3.72
2023-05-23T04:34:04.203Z,3.45
2023-05-23T04:36:57.758Z,3.10
2023-05-23T04:39:46.730Z,3.40
2023-05-23T04:43:14.647Z,3.72
2023-05-23T04:46:10.497Z,3.70
2023-05-23T04:49:02.940Z,3.78
2023-05-23T04:51:51.368Z,3.53
2023-05-23T04:54:45.197Z,3.00
2023-05-23T04:57:33.405Z,3.70
2023-05-23T05:00:22.798Z,2.75
2023-05-23T05:03:12.281Z,3.05
2023-05-23T05:06:06.554Z,4.80
2023-05-23T05:08:56.376Z,4.35
2023-05-23T05:11:46.928Z,3.50
2023-05-23T05:14:38.399Z,3.08
2023-05-23T05:17:26.440Z,3.60
2023-05-23T05:20:29.755Z,3.50
2023-05-23T05:23:17.652Z,3.17
2023-05-23T05:26:05.694Z,3.10
2023-05-23T05:28:53.720Z,3.38
2023-05-23T05:31:43.765Z,3.20
2023-05-23T05:34:38.280Z,3.53
2023-05-23T05:37:27.518Z,4.95
2023-05-23T05:40:19.925Z,2.83
2023-05-23T05:43:07.589Z,3.58
2023-05-23T05:45:55.824Z,3.45
2023-05-23T05:48:46.239Z,2.72
2023-05-23T05:51:36.849Z,3.10
2023-05-23T05:54:33.964Z,3.15
2023-05-23T05:57:21.925Z,2.90
2023-05-23T06:00:13.973Z,4.20
2023-05-23T06:03:09.220Z,3.20
2023-05-23T06:06:13.364Z,3.00
2023-05-23T06:09:01.853Z,2.70
2023-05-23T06:11:53.467Z,2.60
2023-05-23T06:14:41.817Z,2.45
2023-05-23T06:17:30.038Z,2.55
2023-05-23T06:20:20.963Z,2.67
2023-05-23T06:23:12.100Z,2.55
2023-05-23T06:26:04.306Z,2.92
2023-05-23T06:28:52.077Z,2.63
2023-05-23T06:31:58.296Z,2.03
2023-05-23T06:34:46.150Z,2.83
2023-05-23T06:37:34.735Z,2.22
2023-05-23T06:40:25.512Z,2.15
2023-05-23T06:43:20.780Z,3.10
2023-05-23T06:46:28.728Z,3.97
2023-05-23T06:49:19.529Z,2.10
2023-05-23T06:52:07.956Z,3.07
2023-05-23T06:54:55.945Z,2.28
2023-05-23T06:57:45.333Z,2.50
2023-05-23T07:00:36.912Z,2.45
2023-05-23T07:03:47.993Z,1.80
2023-05-23T07:06:43.431Z,1.95
2023-05-23T07:09:31.666Z,1.60
2023-05-23T07:12:34.778Z,2.05
2023-05-23T07:15:23.299Z,1.33
2023-05-23T07:18:21.111Z,1.60
2023-05-23T07:21:09.188Z,2.08
2023-05-23T07:24:00.646Z,2.25
2023-05-23T07:29:47.380Z,1.40
2023-05-23T07:32:41.579Z,1.25
2023-05-23T07:35:33.813Z,1.60
2023-05-23T07:38:24.017Z,1.80
2023-05-23T07:41:22.655Z,2.60
2023-05-23T07:44:10.481Z,1.88
2023-05-23T07:47:07.976Z,1.77
2023-05-23T07:49:58.765Z,1.67
2023-05-23T07:52:48.437Z,1.83
2023-05-23T07:55:39.354Z,2.90
2023-05-23T07:58:27.782Z,1.30
2023-05-23T08:01:18.805Z,1.65
2023-05-23T08:04:21.879Z,2.28
2023-05-23T08:10:28.669Z,1.88
2023-05-23T08:14:06.169Z,1.90
2023-05-23T08:17:15.432Z,1.50
2023-05-23T08:20:24.753Z,1.65
2023-05-23T08:23:13.059Z,2.58
2023-05-23T08:26:09.209Z,1.35
2023-05-23T08:29:01.847Z,1.70
2023-05-23T08:31:56.683Z,1.65
2023-05-23T08:34:45.482Z,0.98
2023-05-23T08:37:38.324Z,1.75
2023-05-23T08:40:31.582Z,1.27
2023-05-23T08:43:45.273Z,1.20
2023-05-23T08:46:50.264Z,1.33
2023-05-23T08:50:13.332Z,0.65
2023-05-23T08:53:22.929Z,1.00
2023-05-23T08:56:37.737Z,1.25
2023-05-23T08:59:27.348Z,1.20
2023-05-23T09:02:16.679Z,0.57
2023-05-23T09:05:07.767Z,0.85
2023-05-23T09:07:57.042Z,0.80
2023-05-23T09:10:48.353Z,1.08
2023-05-23T09:13:36.107Z,0.95
2023-05-23T09:16:35.253Z,0.80
2023-05-23T09:19:28.505Z,0.80
2023-05-23T09:22:43.427Z,1.15
2023-05-23T09:25:49.028Z,1.15
2023-05-23T09:28:39.512Z,0.90
2023-05-23T09:31:29.360Z,1.10
2023-05-23T09:34:18.033Z,0.63
2023-05-23T09:37:06.335Z,0.82
2023-05-23T09:39:56.475Z,0.50
2023-05-23T09:42:46.318Z,1.38
2023-05-23T09:45:34.564Z,0.47
2023-05-23T09:48:30.367Z,0.95
2023-05-23T09:51:24.065Z,0.80
2023-05-23T09:54:15.240Z,0.93
2023-05-23T09:57:11.838Z,0.68
2023-05-23T10:00:01.497Z,0.63
2023-05-23T10:02:58.245Z,1.08
2023-05-23T10:05:57.410Z,0.38
2023-05-23T10:08:50.963Z,0.68
2023-05-23T10:12:17.250Z,0.90
2023-05-23T10:15:07.182Z,0.50
2023-05-23T10:18:20.441Z,0.63
2023-05-23T10:21:13.034Z,0.63
2023-05-23T10:24:01.601Z,1.02
2023-05-23T10:26:49.658Z,0.77
2023-05-23T10:29:38.448Z,0.32
2023-05-23T10:32:30.364Z,1.05
2023-05-23T10:35:47.291Z,1.15
2023-05-23T10:38:58.965Z,0.65
2023-05-23T10:41:56.137Z,0.65
2023-05-23T10:44:44.009Z,0.90
2023-05-23T10:47:31.730Z,0.68
2023-05-23T10:50:34.197Z,0.50
2023-05-23T10:53:23.698Z,0.65
2023-05-23T10:56:23.912Z,0.90
2023-05-23T10:59:21.686Z,1.05
2023-05-23T11:02:17.376Z,0.98
2023-05-23T11:05:25.201Z,0.57
2023-05-23T11:08:14.721Z,0.70
2023-05-23T11:11:03.894Z,0.50
2023-05-23T11:14:00.673Z,0.65
2023-05-23T11:16:49.398Z,0.80
2023-05-23T11:19:37.540Z,0.43
2023-05-23T11:22:30.559Z,0.45
2023-05-23T11:25:20.557Z,0.55
2023-05-23T11:28:08.524Z,1.10
2023-05-23T11:30:58.109Z,0.60
2023-05-23T11:33:46.249Z,0.40
2023-05-23T11:36:35.283Z,0.43
2023-05-23T11:39:23.785Z,0.45
2023-05-23T11:42:11.830Z,0.32
2023-05-23T11:44:59.746Z,0.85
2023-05-23T11:47:47.611Z,0.50
2023-05-23T11:50:47.665Z,0.40
2023-05-23T11:53:44.571Z,0.73
2023-05-23T11:56:32.550Z,0.80
2023-05-23T11:59:21.670Z,0.90
2023-05-23T12:02:09.395Z,0.45
2023-05-23T12:04:57.322Z,0.60
2023-05-23T12:07:47.708Z,0.65
2023-05-23T12:10:51.738Z,0.70
2023-05-23T12:13:42.503Z,0.95
2023-05-23T12:16:30.260Z,0.65
2023-05-23T12:19:18.449Z,0.77
2023-05-23T12:22:13.265Z,0.50
2023-05-23T12:25:01.176Z,0.52
2023-05-23T12:27:49.396Z,0.50
2023-05-23T12:30:44.518Z,0.60
2023-05-23T12:33:32.314Z,0.70
2023-05-23T12:36:25.407Z,1.10
2023-05-23T12:39:13.609Z,0.60
2023-05-23T12:42:09.783Z,0.87
2023-05-23T12:44:58.533Z,0.60
2023-05-23T12:47:46.281Z,0.73
2023-05-23T12:50:34.074Z,0.50
2023-05-23T12:53:24.983Z,0.80
2023-05-23T12:59:02.243Z,0.70
2023-05-23T13:01:50.128Z,0.77
2023-05-23T13:04:40.280Z,0.47
2023-05-23T13:07:28.244Z,0.43
2023-05-23T13:10:15.914Z,0.75
2023-05-23T13:13:04.488Z,0.73
2023-05-23T13:15:52.389Z,0.60
2023-05-23T13:18:40.344Z,0.55
2023-05-23T13:21:28.469Z,0.47
2023-05-23T13:24:16.313Z,1.13
2023-05-23T13:27:05.731Z,0.40
2023-05-23T13:29:53.534Z,0.85
2023-05-23T13:32:41.279Z,0.68
2023-05-23T13:35:32.056Z,0.70
2023-05-23T13:38:20.875Z,0.47
2023-05-23T13:41:08.679Z,0.43
2023-05-23T13:43:56.821Z,0.57
2023-05-23T13:46:44.919Z,0.57
2023-05-23T13:49:32.746Z,0.35
2023-05-23T13:52:20.547Z,0.32
2023-05-23T13:55:08.564Z,0.47
2023-05-23T13:57:56.332Z,0.60
2023-05-23T14:00:46.477Z,0.52
2023-05-23T14:03:34.266Z,0.68
2023-05-23T14:06:22.205Z,0.38
2023-05-23T14:09:10.085Z,0.50
2023-05-23T14:11:58.625Z,0.47
2023-05-23T14:14:46.418Z,0.52
2023-05-23T14:17:34.098Z,0.47
2023-05-23T14:20:22.994Z,0.50
2023-05-23T14:23:11.073Z,0.85
2023-05-23T14:25:58.963Z,0.80
2023-05-23T14:28:46.816Z,0.40
2023-05-23T14:31:34.547Z,1.23
2023-05-23T14:34:22.258Z,0.60
2023-05-23T14:37:10.210Z,0.30
2023-05-23T14:39:58.133Z,1.25
2023-05-23T14:42:46.177Z,0.70
2023-05-23T14:45:34.227Z,0.95
2023-05-23T14:48:22.592Z,0.55
2023-05-23T14:51:11.296Z,0.95
2023-05-23T14:54:00.878Z,0.83
2023-05-23T14:56:51.138Z,0.75
2023-05-23T14:59:40.697Z,0.50
2023-05-23T15:02:28.448Z,0.55
2023-05-23T15:05:17.553Z,0.70
2023-05-23T15:08:05.550Z,0.63
2023-05-23T15:10:53.469Z,0.68
2023-05-23T15:13:41.308Z,0.80
2023-05-23T15:16:33.186Z,2.80
2023-05-23T15:19:21.169Z,0.70
2023-05-23T15:22:13.358Z,0.55
2023-05-23T15:25:08.037Z,0.68
2023-05-23T15:27:56.628Z,0.85
2023-05-23T15:30:44.522Z,0.50
2023-05-23T15:33:32.684Z,0.47
2023-05-23T15:36:20.430Z,0.47
2023-05-23T15:39:08.259Z,0.35
2023-05-23T15:41:55.932Z,0.50
2023-05-23T15:44:43.893Z,0.73
2023-05-23T15:47:31.714Z,0.60
2023-05-23T15:50:20.407Z,0.47
2023-05-23T15:53:08.062Z,0.50
2023-05-23T15:55:55.824Z,0.52
2023-05-23T15:58:43.856Z,0.55
2023-05-23T16:01:36.890Z,0.40
2023-05-23T16:04:24.684Z,0.40
2023-05-23T16:07:12.586Z,1.02
2023-05-23T16:10:00.430Z,0.60
2023-05-23T16:12:48.551Z,0.52
2023-05-23T16:15:36.294Z,0.55
2023-05-23T16:18:24.404Z,0.90
2023-05-23T16:21:12.269Z,0.70
2023-05-23T16:24:00.103Z,0.60
2023-05-23T16:26:47.890Z,0.65
2023-05-23T16:29:35.776Z,0.90
2023-05-23T16:32:23.512Z,0.47
2023-05-23T16:35:14.046Z,0.82
2023-05-23T16:38:04.520Z,0.70
2023-05-23T16:40:52.366Z,0.80
2023-05-23T16:43:40.129Z,0.70
2023-05-23T16:46:27.865Z,0.93
2023-05-23T16:49:15.553Z,0.63
2023-05-23T16:52:03.682Z,0.70
2023-05-23T16:54:51.460Z,0.55
2023-05-23T16:57:39.293Z,0.88
2023-05-23T17:00:27.208Z,0.95
2023-05-23T17:03:15.098Z,0.93
2023-05-23T17:06:02.817Z,0.63
2023-05-23T17:08:52.836Z,0.93
2023-05-23T17:11:40.451Z,0.73
2023-05-23T17:14:28.248Z,0.60
2023-05-23T17:17:16.285Z,0.98
2023-05-23T17:20:04.261Z,1.02
2023-05-23T17:22:55.218Z,0.95
2023-05-23T17:25:43.367Z,1.75
2023-05-23T17:28:31.367Z,1.10
2023-05-23T17:31:21.804Z,1.20
2023-05-23T17:34:12.252Z,0.88
2023-05-23T17:37:00.149Z,1.52
2023-05-23T17:39:48.804Z,2.22
2023-05-23T17:42:37.322Z,2.38
2023-05-23T17:45:25.103Z,3.88
2023-05-23T17:48:12.898Z,3.63
2023-05-23T17:51:00.761Z,3.17
2023-05-23T17:53:51.876Z,2.45
2023-05-23T17:56:39.593Z,2.25
2023-05-23T17:59:28.310Z,1.98
2023-05-23T18:02:16.088Z,2.28
2023-05-23T18:05:05.098Z,2.80
2023-05-23T18:07:53.640Z,3.05
2023-05-23T18:10:50.274Z,2.70
2023-05-23T18:13:38.405Z,2.47
2023-05-23T18:16:26.096Z,2.10
2023-05-23T18:19:14.002Z,2.55
2023-05-23T18:22:01.892Z,2.00
2023-05-23T18:24:49.594Z,2.42
2023-05-23T18:27:37.965Z,1.83
2023-05-23T18:30:26.744Z,2.00
2023-05-23T18:33:14.607Z,1.92
2023-05-23T18:36:02.437Z,1.80
2023-05-23T18:38:50.211Z,1.33
2023-05-23T18:41:38.080Z,1.63
2023-05-23T18:44:26.101Z,1.05
2023-05-23T18:47:13.849Z,2.25
2023-05-23T18:50:01.680Z,1.85
2023-05-23T18:52:49.380Z,1.77
2023-05-23T18:55:37.783Z,1.63
2023-05-23T18:58:25.895Z,1.58
2023-05-23T19:01:13.728Z,1.05
2023-05-23T19:04:01.957Z,1.13
2023-05-23T19:06:51.672Z,1.27
2023-05-23T19:09:39.510Z,2.55
2023-05-23T19:12:27.192Z,1.30
2023-05-23T19:15:15.297Z,1.75
2023-05-23T19:18:03.128Z,1.55
2023-05-23T19:20:54.830Z,1.50
2023-05-23T19:23:45.244Z,1.40
2023-05-23T19:26:33.162Z,1.08
2023-05-23T19:29:21.789Z,1.48
2023-05-23T19:32:09.527Z,1.40
2023-05-23T19:34:57.212Z,1.42
2023-05-23T19:37:45.372Z,2.30
2023-05-23T19:40:33.179Z,2.70
2023-05-23T19:43:21.282Z,3.90
2023-05-23T19:46:09.196Z,3.70
2023-05-23T19:48:59.909Z,3.08
2023-05-23T19:51:48.156Z,2.47
2023-05-23T19:54:35.831Z,2.00
2023-05-23T19:57:23.907Z,2.15
2023-05-23T20:00:14.931Z,2.30
2023-05-23T20:03:03.823Z,2.57
2023-05-23T20:05:51.737Z,2.80
2023-05-23T20:08:39.704Z,2.58
2023-05-23T20:11:29.306Z,2.20
2023-05-23T20:14:17.337Z,1.90
2023-05-23T20:17:05.410Z,2.17
2023-05-23T20:19:53.135Z,2.13
2023-05-23T20:22:41.132Z,1.63
2023-05-23T20:25:28.992Z,1.27
2023-05-23T20:28:16.900Z,1.70
2023-05-23T20:31:04.684Z,1.77
2023-05-23T20:33:52.737Z,1.83
2023-05-23T20:36:40.466Z,2.03
2023-05-23T20:39:28.189Z,1.88
2023-05-23T20:42:16.023Z,1.42
2023-05-23T20:45:07.245Z,2.05
2023-05-23T20:47:55.722Z,2.17
2023-05-23T20:50:44.340Z,2.17
2023-05-23T20:53:32.643Z,1.92
2023-05-23T20:56:20.409Z,2.47
2023-05-23T20:59:08.509Z,1.58
2023-05-23T21:01:57.415Z,2.10
2023-05-23T21:04:45.223Z,1.70
2023-05-23T21:07:32.985Z,2.30
2023-05-23T21:10:20.959Z,1.77
2023-05-23T21:13:08.671Z,2.30
2023-05-23T21:15:56.445Z,2.50
2023-05-23T21:18:44.174Z,2.47
2023-05-23T21:21:32.016Z,2.17
2023-05-23T21:24:19.829Z,2.17
2023-05-23T21:27:08.201Z,1.90
2023-05-23T21:29:56.545Z,2.25
2023-05-23T21:32:45.046Z,2.35
2023-05-23T21:35:39.150Z,4.03
2023-05-23T21:38:27.911Z,3.20
2023-05-23T21:41:15.569Z,2.75
2023-05-23T21:44:03.430Z,3.42
2023-05-23T21:46:51.334Z,2.72
2023-05-23T21:49:40.653Z,2.60
2023-05-23T21:52:28.423Z,2.60
2023-05-23T21:55:16.332Z,1.88
2023-05-23T21:58:04.029Z,2.88
2023-05-23T22:00:51.720Z,3.08
2023-05-23T22:03:39.546Z,2.50
2023-05-23T22:06:27.541Z,1.80
2023-05-23T22:09:15.560Z,1.70
2023-05-23T22:12:03.423Z,2.20
2023-05-23T22:14:51.116Z,2.60
2023-05-23T22:17:43.520Z,1.92
2023-05-23T22:20:34.312Z,1.98
2023-05-23T22:23:22.085Z,1.73
2023-05-23T22:26:09.976Z,2.00
2023-05-23T22:28:57.849Z,2.40
2023-05-23T22:31:47.062Z,2.65
2023-05-23T22:34:34.810Z,1.90
2023-05-23T22:37:22.524Z,2.10
2023-05-23T22:40:10.630Z,2.55
2023-05-23T22:42:58.428Z,1.92
2023-05-23T22:45:46.342Z,2.20
2023-05-23T22:48:34.373Z,2.10
2023-05-23T22:51:22.509Z,2.40
2023-05-23T22:54:10.192Z,1.83
2023-05-23T22:56:57.900Z,1.80
2023-05-23T22:59:45.593Z,2.35
2023-05-23T23:02:34.790Z,2.42
2023-05-23T23:05:23.203Z,2.53
2023-05-23T23:08:11.125Z,2.20
2023-05-23T23:10:58.812Z,2.00
2023-05-23T23:13:46.787Z,2.20
2023-05-23T23:16:34.915Z,2.28
2023-05-23T23:19:22.953Z,2.30
2023-05-23T23:22:11.085Z,2.55
2023-05-23T23:24:59.130Z,3.03
2023-05-23T23:27:46.938Z,2.47
2023-05-23T23:30:34.776Z,2.35
2023-05-23T23:33:21.895Z,2.30
2023-05-23T23:36:09.791Z,2.35
2023-05-23T23:38:57.420Z,2.58
2023-05-23T23:41:45.270Z,3.25
2023-05-23T23:44:33.102Z,3.33
2023-05-23T23:47:20.890Z,3.42
2023-05-23T23:50:09.020Z,2.47
2023-05-23T23:52:59.609Z,3.05
2023-05-23T23:55:48.805Z,3.20
2023-05-23T23:58:36.749Z,4.00
